sensor_id;sensor_type;location;lat;lon;timestamp;P1;durP1;ratioP1;P2;durP2;ratioP2
6282;SDS011;3174;53.486;9.568;2023-05-07T00:00:58;7.20;;;4.53;;
6282;SDS011;3174;53.486;9.568;2023-05-07T00:03:28;7.17;;;4.80;;
6282;SDS011;3174;53.486;9.568;2023-05-07T00:05:56;8.93;;;6.13;;
6282;SDS011;3174;53.486;9.568;2023-05-07T00:08:24;7.03;;;4.57;;
6282;SDS011;3174;53.486;9.568;2023-05-07T00:10:52;5.77;;;4.07;;
6282;SDS011;3174;53.486;9.568;2023-05-07T00:13:20;6.93;;;4.80;;
6282;SDS011;3174;53.486;9.568;2023-05-07T00:15:48;7.70;;;5.03;;
6282;SDS011;3174;53.486;9.568;2023-05-07T00:18:16;7.93;;;4.70;;
6282;SDS011;3174;53.486;9.568;2023-05-07T00:20:48;7.50;;;5.23;;
6282;SDS011;3174;53.486;9.568;2023-05-07T00:23:16;9.50;;;6.00;;
6282;SDS011;3174;53.486;9.568;2023-05-07T00:25:44;10.23;;;4.47;;
6282;SDS011;3174;53.486;9.568;2023-05-07T00:28:12;7.67;;;4.97;;
6282;SDS011;3174;53.486;9.568;2023-05-07T00:30:40;8.97;;;5.20;;
6282;SDS011;3174;53.486;9.568;2023-05-07T00:33:08;7.67;;;4.67;;
6282;SDS011;3174;53.486;9.568;2023-05-07T00:35:36;8.83;;;4.93;;
6282;SDS011;3174;53.486;9.568;2023-05-07T00:38:05;9.00;;;5.40;;
6282;SDS011;3174;53.486;9.568;2023-05-07T00:40:33;9.57;;;5.50;;
6282;SDS011;3174;53.486;9.568;2023-05-07T00:43:01;8.30;;;5.60;;
6282;SDS011;3174;53.486;9.568;2023-05-07T00:45:30;7.70;;;4.80;;
6282;SDS011;3174;53.486;9.568;2023-05-07T00:47:59;7.63;;;4.37;;
6282;SDS011;3174;53.486;9.568;2023-05-07T00:50:27;7.63;;;4.73;;
6282;SDS011;3174;53.486;9.568;2023-05-07T00:52:56;7.07;;;4.50;;
6282;SDS011;3174;53.486;9.568;2023-05-07T00:55:25;6.03;;;4.27;;
6282;SDS011;3174;53.486;9.568;2023-05-07T00:57:53;7.60;;;4.60;;
6282;SDS011;3174;53.486;9.568;2023-05-07T01:00:21;8.37;;;4.80;;
6282;SDS011;3174;53.486;9.568;2023-05-07T01:02:51;7.63;;;5.17;;
6282;SDS011;3174;53.486;9.568;2023-05-07T01:05:20;9.37;;;4.73;;
6282;SDS011;3174;53.486;9.568;2023-05-07T01:07:50;7.63;;;4.40;;
6282;SDS011;3174;53.486;9.568;2023-05-07T01:10:18;6.50;;;4.33;;
6282;SDS011;3174;53.486;9.568;2023-05-07T01:12:48;4.93;;;3.50;;
6282;SDS011;3174;53.486;9.568;2023-05-07T01:15:17;8.10;;;4.27;;
6282;SDS011;3174;53.486;9.568;2023-05-07T01:17:45;6.93;;;4.30;;
6282;SDS011;3174;53.486;9.568;2023-05-07T01:20:13;6.03;;;4.57;;
6282;SDS011;3174;53.486;9.568;2023-05-07T01:22:43;9.00;;;4.17;;
6282;SDS011;3174;53.486;9.568;2023-05-07T01:25:11;6.00;;;4.10;;
6282;SDS011;3174;53.486;9.568;2023-05-07T01:27:39;7.27;;;3.97;;
6282;SDS011;3174;53.486;9.568;2023-05-07T01:30:08;5.83;;;4.00;;
6282;SDS011;3174;53.486;9.568;2023-05-07T01:32:37;6.73;;;4.63;;
6282;SDS011;3174;53.486;9.568;2023-05-07T01:35:09;6.17;;;4.37;;
6282;SDS011;3174;53.486;9.568;2023-05-07T01:37:39;5.73;;;4.10;;
6282;SDS011;3174;53.486;9.568;2023-05-07T01:40:09;7.23;;;4.70;;
6282;SDS011;3174;53.486;9.568;2023-05-07T01:42:37;6.67;;;4.20;;
6282;SDS011;3174;53.486;9.568;2023-05-07T01:45:06;8.20;;;4.13;;
6282;SDS011;3174;53.486;9.568;2023-05-07T01:47:34;7.50;;;4.40;;
6282;SDS011;3174;53.486;9.568;2023-05-07T01:50:04;4.77;;;3.90;;
6282;SDS011;3174;53.486;9.568;2023-05-07T01:52:35;5.80;;;3.80;;
6282;SDS011;3174;53.486;9.568;2023-05-07T01:55:04;6.37;;;3.83;;
6282;SDS011;3174;53.486;9.568;2023-05-07T01:57:34;6.97;;;3.87;;
6282;SDS011;3174;53.486;9.568;2023-05-07T02:00:03;6.63;;;4.07;;
6282;SDS011;3174;53.486;9.568;2023-05-07T02:02:31;5.37;;;3.60;;
6282;SDS011;3174;53.486;9.568;2023-05-07T02:04:59;4.87;;;3.53;;
6282;SDS011;3174;53.486;9.568;2023-05-07T02:07:28;6.40;;;3.93;;
6282;SDS011;3174;53.486;9.568;2023-05-07T02:09:56;6.13;;;4.00;;
6282;SDS011;3174;53.486;9.568;2023-05-07T02:12:24;8.23;;;4.60;;
6282;SDS011;3174;53.486;9.568;2023-05-07T02:14:53;5.33;;;3.50;;
6282;SDS011;3174;53.486;9.568;2023-05-07T02:17:21;5.03;;;3.30;;
6282;SDS011;3174;53.486;9.568;2023-05-07T02:19:49;6.17;;;3.70;;
6282;SDS011;3174;53.486;9.568;2023-05-07T02:22:17;5.10;;;3.43;;
6282;SDS011;3174;53.486;9.568;2023-05-07T02:24:45;4.57;;;3.50;;
6282;SDS011;3174;53.486;9.568;2023-05-07T02:27:13;5.90;;;3.83;;
6282;SDS011;3174;53.486;9.568;2023-05-07T02:29:41;5.23;;;3.63;;
6282;SDS011;3174;53.486;9.568;2023-05-07T02:32:10;5.80;;;3.67;;
6282;SDS011;3174;53.486;9.568;2023-05-07T02:34:38;6.53;;;4.40;;
6282;SDS011;3174;53.486;9.568;2023-05-07T02:37:06;4.27;;;3.17;;
6282;SDS011;3174;53.486;9.568;2023-05-07T02:39:34;4.83;;;3.27;;
6282;SDS011;3174;53.486;9.568;2023-05-07T02:42:03;5.93;;;4.30;;
6282;SDS011;3174;53.486;9.568;2023-05-07T02:44:31;7.73;;;3.57;;
6282;SDS011;3174;53.486;9.568;2023-05-07T02:46:59;5.77;;;4.10;;
6282;SDS011;3174;53.486;9.568;2023-05-07T02:49:28;5.60;;;3.20;;
6282;SDS011;3174;53.486;9.568;2023-05-07T02:51:56;7.37;;;3.87;;
6282;SDS011;3174;53.486;9.568;2023-05-07T02:54:24;3.60;;;2.93;;
6282;SDS011;3174;53.486;9.568;2023-05-07T02:56:52;4.93;;;3.37;;
6282;SDS011;3174;53.486;9.568;2023-05-07T02:59:20;6.47;;;3.63;;
6282;SDS011;3174;53.486;9.568;2023-05-07T03:01:48;4.93;;;3.43;;
6282;SDS011;3174;53.486;9.568;2023-05-07T03:04:16;5.43;;;3.60;;
6282;SDS011;3174;53.486;9.568;2023-05-07T03:06:45;5.13;;;3.80;;
6282;SDS011;3174;53.486;9.568;2023-05-07T03:09:13;4.50;;;3.53;;
6282;SDS011;3174;53.486;9.568;2023-05-07T03:11:41;6.07;;;4.07;;
6282;SDS011;3174;53.486;9.568;2023-05-07T03:14:09;4.47;;;3.47;;
6282;SDS011;3174;53.486;9.568;2023-05-07T03:16:37;6.43;;;4.20;;
6282;SDS011;3174;53.486;9.568;2023-05-07T03:19:05;5.10;;;3.27;;
6282;SDS011;3174;53.486;9.568;2023-05-07T03:21:33;6.23;;;3.97;;
6282;SDS011;3174;53.486;9.568;2023-05-07T03:24:03;4.57;;;3.40;;
6282;SDS011;3174;53.486;9.568;2023-05-07T03:26:31;5.90;;;3.70;;
6282;SDS011;3174;53.486;9.568;2023-05-07T03:28:59;5.53;;;3.70;;
6282;SDS011;3174;53.486;9.568;2023-05-07T03:31:27;7.17;;;3.57;;
6282;SDS011;3174;53.486;9.568;2023-05-07T03:33:55;5.07;;;3.13;;
6282;SDS011;3174;53.486;9.568;2023-05-07T03:36:24;5.13;;;3.53;;
6282;SDS011;3174;53.486;9.568;2023-05-07T03:38:52;5.13;;;3.60;;
6282;SDS011;3174;53.486;9.568;2023-05-07T03:41:22;5.03;;;3.93;;
6282;SDS011;3174;53.486;9.568;2023-05-07T03:43:50;4.97;;;3.47;;
6282;SDS011;3174;53.486;9.568;2023-05-07T03:46:18;4.93;;;3.30;;
6282;SDS011;3174;53.486;9.568;2023-05-07T03:48:46;4.97;;;3.83;;
6282;SDS011;3174;53.486;9.568;2023-05-07T03:51:14;6.77;;;3.80;;
6282;SDS011;3174;53.486;9.568;2023-05-07T03:53:42;6.60;;;3.90;;
6282;SDS011;3174;53.486;9.568;2023-05-07T03:56:10;6.23;;;4.10;;
6282;SDS011;3174;53.486;9.568;2023-05-07T03:58:39;4.73;;;3.80;;
6282;SDS011;3174;53.486;9.568;2023-05-07T04:01:07;5.77;;;3.80;;
6282;SDS011;3174;53.486;9.568;2023-05-07T04:03:35;5.50;;;3.40;;
6282;SDS011;3174;53.486;9.568;2023-05-07T04:06:03;5.60;;;3.70;;
6282;SDS011;3174;53.486;9.568;2023-05-07T04:08:31;5.13;;;3.90;;
6282;SDS011;3174;53.486;9.568;2023-05-07T04:10:59;5.93;;;3.97;;
6282;SDS011;3174;53.486;9.568;2023-05-07T04:13:27;5.93;;;3.90;;
6282;SDS011;3174;53.486;9.568;2023-05-07T04:15:56;7.13;;;4.10;;
6282;SDS011;3174;53.486;9.568;2023-05-07T04:18:25;6.23;;;3.77;;
6282;SDS011;3174;53.486;9.568;2023-05-07T04:20:53;6.87;;;4.27;;
6282;SDS011;3174;53.486;9.568;2023-05-07T04:23:21;7.00;;;4.33;;
6282;SDS011;3174;53.486;9.568;2023-05-07T04:25:49;7.43;;;5.10;;
6282;SDS011;3174;53.486;9.568;2023-05-07T04:28:18;6.43;;;4.10;;
6282;SDS011;3174;53.486;9.568;2023-05-07T04:30:45;7.33;;;4.87;;
6282;SDS011;3174;53.486;9.568;2023-05-07T04:33:15;8.00;;;4.60;;
6282;SDS011;3174;53.486;9.568;2023-05-07T04:35:43;7.27;;;4.60;;
6282;SDS011;3174;53.486;9.568;2023-05-07T04:38:12;8.70;;;5.30;;
6282;SDS011;3174;53.486;9.568;2023-05-07T04:40:40;8.07;;;4.63;;
6282;SDS011;3174;53.486;9.568;2023-05-07T04:43:08;6.93;;;4.30;;
6282;SDS011;3174;53.486;9.568;2023-05-07T04:45:36;6.83;;;4.77;;
6282;SDS011;3174;53.486;9.568;2023-05-07T04:48:07;8.00;;;4.77;;
6282;SDS011;3174;53.486;9.568;2023-05-07T04:50:37;6.40;;;4.50;;
6282;SDS011;3174;53.486;9.568;2023-05-07T04:53:05;6.93;;;4.50;;
6282;SDS011;3174;53.486;9.568;2023-05-07T04:55:33;6.73;;;4.53;;
6282;SDS011;3174;53.486;9.568;2023-05-07T04:58:01;8.63;;;4.83;;
6282;SDS011;3174;53.486;9.568;2023-05-07T05:00:29;6.43;;;4.73;;
6282;SDS011;3174;53.486;9.568;2023-05-07T05:02:57;8.20;;;4.40;;
6282;SDS011;3174;53.486;9.568;2023-05-07T05:05:25;9.57;;;5.60;;
6282;SDS011;3174;53.486;9.568;2023-05-07T05:07:54;6.30;;;4.73;;
6282;SDS011;3174;53.486;9.568;2023-05-07T05:10:22;6.70;;;4.30;;
6282;SDS011;3174;53.486;9.568;2023-05-07T05:12:51;6.93;;;4.67;;
6282;SDS011;3174;53.486;9.568;2023-05-07T05:15:19;5.87;;;4.20;;
6282;SDS011;3174;53.486;9.568;2023-05-07T05:17:47;8.93;;;4.30;;
6282;SDS011;3174;53.486;9.568;2023-05-07T05:20:15;5.97;;;4.37;;
6282;SDS011;3174;53.486;9.568;2023-05-07T05:22:43;5.80;;;4.37;;
6282;SDS011;3174;53.486;9.568;2023-05-07T05:25:12;6.00;;;4.47;;
6282;SDS011;3174;53.486;9.568;2023-05-07T05:27:40;7.50;;;4.47;;
6282;SDS011;3174;53.486;9.568;2023-05-07T05:30:08;8.27;;;4.77;;
6282;SDS011;3174;53.486;9.568;2023-05-07T05:32:37;6.57;;;4.30;;
6282;SDS011;3174;53.486;9.568;2023-05-07T05:35:05;6.00;;;3.57;;
6282;SDS011;3174;53.486;9.568;2023-05-07T05:37:34;9.23;;;5.87;;
6282;SDS011;3174;53.486;9.568;2023-05-07T05:40:02;6.07;;;4.40;;
6282;SDS011;3174;53.486;9.568;2023-05-07T05:42:32;6.57;;;4.63;;
6282;SDS011;3174;53.486;9.568;2023-05-07T05:45:00;7.50;;;4.23;;
6282;SDS011;3174;53.486;9.568;2023-05-07T05:47:28;7.93;;;4.43;;
6282;SDS011;3174;53.486;9.568;2023-05-07T05:49:56;7.73;;;5.17;;
6282;SDS011;3174;53.486;9.568;2023-05-07T05:52:24;5.63;;;4.30;;
6282;SDS011;3174;53.486;9.568;2023-05-07T05:54:52;9.57;;;5.67;;
6282;SDS011;3174;53.486;9.568;2023-05-07T05:57:20;7.23;;;4.27;;
6282;SDS011;3174;53.486;9.568;2023-05-07T05:59:49;8.27;;;4.23;;
6282;SDS011;3174;53.486;9.568;2023-05-07T06:02:18;7.10;;;3.97;;
6282;SDS011;3174;53.486;9.568;2023-05-07T06:04:46;6.37;;;4.20;;
6282;SDS011;3174;53.486;9.568;2023-05-07T06:07:14;5.40;;;3.80;;
6282;SDS011;3174;53.486;9.568;2023-05-07T06:09:42;6.77;;;4.37;;
6282;SDS011;3174;53.486;9.568;2023-05-07T06:12:11;8.37;;;4.70;;
6282;SDS011;3174;53.486;9.568;2023-05-07T06:14:39;8.13;;;4.33;;
6282;SDS011;3174;53.486;9.568;2023-05-07T06:17:08;7.90;;;5.10;;
6282;SDS011;3174;53.486;9.568;2023-05-07T06:19:36;7.53;;;4.23;;
6282;SDS011;3174;53.486;9.568;2023-05-07T06:22:04;6.83;;;4.07;;
6282;SDS011;3174;53.486;9.568;2023-05-07T06:24:32;6.77;;;4.83;;
6282;SDS011;3174;53.486;9.568;2023-05-07T06:27:00;7.43;;;4.57;;
6282;SDS011;3174;53.486;9.568;2023-05-07T06:29:28;7.27;;;4.77;;
6282;SDS011;3174;53.486;9.568;2023-05-07T06:32:02;6.27;;;4.30;;
6282;SDS011;3174;53.486;9.568;2023-05-07T06:34:35;6.33;;;4.17;;
6282;SDS011;3174;53.486;9.568;2023-05-07T06:37:03;5.57;;;3.80;;
6282;SDS011;3174;53.486;9.568;2023-05-07T06:39:31;7.33;;;4.13;;
6282;SDS011;3174;53.486;9.568;2023-05-07T06:41:59;6.60;;;4.33;;
6282;SDS011;3174;53.486;9.568;2023-05-07T06:44:27;6.70;;;4.20;;
6282;SDS011;3174;53.486;9.568;2023-05-07T06:46:55;5.87;;;3.20;;
6282;SDS011;3174;53.486;9.568;2023-05-07T06:49:24;6.67;;;4.50;;
6282;SDS011;3174;53.486;9.568;2023-05-07T06:51:53;7.53;;;4.57;;
6282;SDS011;3174;53.486;9.568;2023-05-07T06:54:22;6.17;;;3.77;;
6282;SDS011;3174;53.486;9.568;2023-05-07T06:56:50;7.90;;;3.97;;
6282;SDS011;3174;53.486;9.568;2023-05-07T06:59:18;5.50;;;3.80;;
6282;SDS011;3174;53.486;9.568;2023-05-07T07:01:46;8.63;;;4.73;;
6282;SDS011;3174;53.486;9.568;2023-05-07T07:04:14;6.53;;;4.30;;
6282;SDS011;3174;53.486;9.568;2023-05-07T07:06:42;6.10;;;4.30;;
6282;SDS011;3174;53.486;9.568;2023-05-07T07:09:11;6.07;;;4.23;;
6282;SDS011;3174;53.486;9.568;2023-05-07T07:11:39;6.50;;;3.93;;
6282;SDS011;3174;53.486;9.568;2023-05-07T07:14:07;6.67;;;3.70;;
6282;SDS011;3174;53.486;9.568;2023-05-07T07:16:36;6.23;;;4.10;;
6282;SDS011;3174;53.486;9.568;2023-05-07T07:19:04;6.80;;;4.07;;
6282;SDS011;3174;53.486;9.568;2023-05-07T07:21:32;6.10;;;3.80;;
6282;SDS011;3174;53.486;9.568;2023-05-07T07:24:00;7.37;;;4.50;;
6282;SDS011;3174;53.486;9.568;2023-05-07T07:26:29;5.83;;;4.13;;
6282;SDS011;3174;53.486;9.568;2023-05-07T07:28:57;6.93;;;3.87;;
6282;SDS011;3174;53.486;9.568;2023-05-07T07:31:25;6.47;;;4.20;;
6282;SDS011;3174;53.486;9.568;2023-05-07T07:33:53;7.90;;;3.67;;
6282;SDS011;3174;53.486;9.568;2023-05-07T07:36:21;7.43;;;3.80;;
6282;SDS011;3174;53.486;9.568;2023-05-07T07:39:04;7.53;;;3.90;;
6282;SDS011;3174;53.486;9.568;2023-05-07T07:41:33;5.40;;;3.77;;
6282;SDS011;3174;53.486;9.568;2023-05-07T07:44:02;8.27;;;4.70;;
6282;SDS011;3174;53.486;9.568;2023-05-07T07:46:33;5.33;;;3.73;;
6282;SDS011;3174;53.486;9.568;2023-05-07T07:49:02;5.33;;;3.57;;
6282;SDS011;3174;53.486;9.568;2023-05-07T07:51:29;6.70;;;3.57;;
6282;SDS011;3174;53.486;9.568;2023-05-07T07:53:57;8.07;;;4.00;;
6282;SDS011;3174;53.486;9.568;2023-05-07T07:56:26;5.33;;;3.63;;
6282;SDS011;3174;53.486;9.568;2023-05-07T07:58:55;4.87;;;3.43;;
6282;SDS011;3174;53.486;9.568;2023-05-07T08:01:23;5.43;;;3.20;;
6282;SDS011;3174;53.486;9.568;2023-05-07T08:03:52;5.20;;;3.37;;
6282;SDS011;3174;53.486;9.568;2023-05-07T08:06:20;5.47;;;3.50;;
6282;SDS011;3174;53.486;9.568;2023-05-07T08:08:48;7.83;;;4.27;;
6282;SDS011;3174;53.486;9.568;2023-05-07T08:11:16;5.03;;;3.50;;
6282;SDS011;3174;53.486;9.568;2023-05-07T08:13:45;4.30;;;3.30;;
6282;SDS011;3174;53.486;9.568;2023-05-07T08:16:14;5.43;;;3.80;;
6282;SDS011;3174;53.486;9.568;2023-05-07T08:18:42;6.70;;;3.53;;
6282;SDS011;3174;53.486;9.568;2023-05-07T08:21:10;6.93;;;3.87;;
6282;SDS011;3174;53.486;9.568;2023-05-07T08:23:38;5.53;;;3.10;;
6282;SDS011;3174;53.486;9.568;2023-05-07T08:26:07;4.90;;;3.30;;
6282;SDS011;3174;53.486;9.568;2023-05-07T08:28:35;6.00;;;3.83;;
6282;SDS011;3174;53.486;9.568;2023-05-07T08:31:03;6.20;;;3.43;;
6282;SDS011;3174;53.486;9.568;2023-05-07T08:33:32;6.27;;;4.07;;
6282;SDS011;3174;53.486;9.568;2023-05-07T08:36:00;5.13;;;3.30;;
6282;SDS011;3174;53.486;9.568;2023-05-07T08:38:28;4.97;;;3.37;;
6282;SDS011;3174;53.486;9.568;2023-05-07T08:40:56;4.60;;;3.20;;
6282;SDS011;3174;53.486;9.568;2023-05-07T08:43:24;4.93;;;3.13;;
6282;SDS011;3174;53.486;9.568;2023-05-07T08:45:54;4.87;;;3.50;;
6282;SDS011;3174;53.486;9.568;2023-05-07T08:48:25;5.43;;;3.70;;
6282;SDS011;3174;53.486;9.568;2023-05-07T08:50:54;4.23;;;2.90;;
6282;SDS011;3174;53.486;9.568;2023-05-07T08:53:22;6.27;;;4.03;;
6282;SDS011;3174;53.486;9.568;2023-05-07T08:55:50;3.47;;;3.00;;
6282;SDS011;3174;53.486;9.568;2023-05-07T08:58:18;4.27;;;3.57;;
6282;SDS011;3174;53.486;9.568;2023-05-07T09:00:46;4.73;;;3.13;;
6282;SDS011;3174;53.486;9.568;2023-05-07T09:03:14;5.90;;;3.70;;
6282;SDS011;3174;53.486;9.568;2023-05-07T09:05:43;4.47;;;3.50;;
6282;SDS011;3174;53.486;9.568;2023-05-07T09:08:14;6.13;;;3.50;;
6282;SDS011;3174;53.486;9.568;2023-05-07T09:10:42;4.63;;;3.33;;
6282;SDS011;3174;53.486;9.568;2023-05-07T09:13:11;5.10;;;3.20;;
6282;SDS011;3174;53.486;9.568;2023-05-07T09:15:41;4.57;;;3.20;;
6282;SDS011;3174;53.486;9.568;2023-05-07T09:18:08;5.77;;;3.07;;
6282;SDS011;3174;53.486;9.568;2023-05-07T09:20:37;2.93;;;2.57;;
6282;SDS011;3174;53.486;9.568;2023-05-07T09:23:05;3.93;;;2.87;;
6282;SDS011;3174;53.486;9.568;2023-05-07T09:25:36;4.93;;;3.40;;
6282;SDS011;3174;53.486;9.568;2023-05-07T09:28:04;4.47;;;3.00;;
6282;SDS011;3174;53.486;9.568;2023-05-07T09:30:33;4.60;;;3.07;;
6282;SDS011;3174;53.486;9.568;2023-05-07T09:33:36;5.60;;;3.13;;
6282;SDS011;3174;53.486;9.568;2023-05-07T09:35:54;4.77;;;2.90;;
6282;SDS011;3174;53.486;9.568;2023-05-07T09:38:22;4.23;;;2.93;;
6282;SDS011;3174;53.486;9.568;2023-05-07T09:40:55;3.77;;;2.97;;
6282;SDS011;3174;53.486;9.568;2023-05-07T09:43:31;5.07;;;3.30;;
6282;SDS011;3174;53.486;9.568;2023-05-07T09:48:35;6.30;;;3.30;;
6282;SDS011;3174;53.486;9.568;2023-05-07T09:51:06;4.30;;;2.90;;
6282;SDS011;3174;53.486;9.568;2023-05-07T09:53:43;5.77;;;2.93;;
6282;SDS011;3174;53.486;9.568;2023-05-07T09:56:14;5.47;;;3.60;;
6282;SDS011;3174;53.486;9.568;2023-05-07T09:58:43;3.47;;;3.10;;
6282;SDS011;3174;53.486;9.568;2023-05-07T10:01:11;3.10;;;2.63;;
6282;SDS011;3174;53.486;9.568;2023-05-07T10:03:40;6.03;;;3.30;;
6282;SDS011;3174;53.486;9.568;2023-05-07T10:06:10;5.00;;;3.43;;
6282;SDS011;3174;53.486;9.568;2023-05-07T10:08:38;4.73;;;3.07;;
6282;SDS011;3174;53.486;9.568;2023-05-07T10:11:06;5.07;;;3.10;;
6282;SDS011;3174;53.486;9.568;2023-05-07T10:13:35;3.70;;;3.00;;
6282;SDS011;3174;53.486;9.568;2023-05-07T10:16:04;4.43;;;2.97;;
6282;SDS011;3174;53.486;9.568;2023-05-07T10:18:32;3.43;;;2.70;;
6282;SDS011;3174;53.486;9.568;2023-05-07T10:21:02;4.27;;;3.00;;
6282;SDS011;3174;53.486;9.568;2023-05-07T10:23:34;2.97;;;2.50;;
6282;SDS011;3174;53.486;9.568;2023-05-07T10:26:03;4.77;;;2.70;;
6282;SDS011;3174;53.486;9.568;2023-05-07T10:28:36;3.80;;;2.43;;
6282;SDS011;3174;53.486;9.568;2023-05-07T10:31:13;5.00;;;3.17;;
6282;SDS011;3174;53.486;9.568;2023-05-07T10:33:46;3.40;;;2.80;;
6282;SDS011;3174;53.486;9.568;2023-05-07T10:36:15;5.43;;;3.00;;
6282;SDS011;3174;53.486;9.568;2023-05-07T10:38:43;3.43;;;2.60;;
6282;SDS011;3174;53.486;9.568;2023-05-07T10:41:11;4.40;;;3.00;;
6282;SDS011;3174;53.486;9.568;2023-05-07T10:43:41;4.77;;;3.23;;
6282;SDS011;3174;53.486;9.568;2023-05-07T10:46:10;5.97;;;4.03;;
6282;SDS011;3174;53.486;9.568;2023-05-07T10:51:37;4.90;;;3.00;;
6282;SDS011;3174;53.486;9.568;2023-05-07T10:54:19;4.37;;;3.10;;
6282;SDS011;3174;53.486;9.568;2023-05-07T10:56:47;4.23;;;3.00;;
6282;SDS011;3174;53.486;9.568;2023-05-07T10:59:31;5.60;;;3.00;;
6282;SDS011;3174;53.486;9.568;2023-05-07T11:02:01;6.83;;;2.90;;
6282;SDS011;3174;53.486;9.568;2023-05-07T11:04:32;4.27;;;2.80;;
6282;SDS011;3174;53.486;9.568;2023-05-07T11:07:24;6.03;;;3.23;;
6282;SDS011;3174;53.486;9.568;2023-05-07T11:09:59;3.87;;;3.07;;
6282;SDS011;3174;53.486;9.568;2023-05-07T11:12:49;3.90;;;3.27;;
6282;SDS011;3174;53.486;9.568;2023-05-07T11:18:20;4.07;;;2.67;;
6282;SDS011;3174;53.486;9.568;2023-05-07T11:20:52;5.23;;;3.10;;
6282;SDS011;3174;53.486;9.568;2023-05-07T11:26:41;4.17;;;2.87;;
6282;SDS011;3174;53.486;9.568;2023-05-07T11:29:14;11.70;;;3.77;;
6282;SDS011;3174;53.486;9.568;2023-05-07T11:31:51;4.73;;;3.40;;
6282;SDS011;3174;53.486;9.568;2023-05-07T11:34:21;4.60;;;3.53;;
6282;SDS011;3174;53.486;9.568;2023-05-07T11:36:50;4.33;;;3.10;;
6282;SDS011;3174;53.486;9.568;2023-05-07T11:39:27;4.63;;;3.50;;
6282;SDS011;3174;53.486;9.568;2023-05-07T11:41:56;4.60;;;3.60;;
6282;SDS011;3174;53.486;9.568;2023-05-07T11:44:24;4.27;;;3.07;;
6282;SDS011;3174;53.486;9.568;2023-05-07T11:46:53;5.23;;;3.30;;
6282;SDS011;3174;53.486;9.568;2023-05-07T11:49:24;3.27;;;2.70;;
6282;SDS011;3174;53.486;9.568;2023-05-07T11:51:52;4.90;;;3.40;;
6282;SDS011;3174;53.486;9.568;2023-05-07T11:54:21;3.73;;;2.97;;
6282;SDS011;3174;53.486;9.568;2023-05-07T11:56:49;4.83;;;3.40;;
6282;SDS011;3174;53.486;9.568;2023-05-07T11:59:17;4.30;;;3.17;;
6282;SDS011;3174;53.486;9.568;2023-05-07T12:01:46;5.17;;;3.63;;
6282;SDS011;3174;53.486;9.568;2023-05-07T12:04:20;3.77;;;3.00;;
6282;SDS011;3174;53.486;9.568;2023-05-07T12:06:48;4.83;;;3.13;;
6282;SDS011;3174;53.486;9.568;2023-05-07T12:09:17;6.37;;;3.43;;
6282;SDS011;3174;53.486;9.568;2023-05-07T12:11:45;4.83;;;3.50;;
6282;SDS011;3174;53.486;9.568;2023-05-07T12:14:14;3.67;;;2.90;;
6282;SDS011;3174;53.486;9.568;2023-05-07T12:16:43;5.87;;;3.30;;
6282;SDS011;3174;53.486;9.568;2023-05-07T12:19:11;5.30;;;3.17;;
6282;SDS011;3174;53.486;9.568;2023-05-07T12:21:42;5.40;;;3.40;;
6282;SDS011;3174;53.486;9.568;2023-05-07T12:24:10;5.03;;;3.30;;
6282;SDS011;3174;53.486;9.568;2023-05-07T12:26:38;3.77;;;3.07;;
6282;SDS011;3174;53.486;9.568;2023-05-07T12:29:07;4.13;;;3.10;;
6282;SDS011;3174;53.486;9.568;2023-05-07T12:31:35;4.07;;;3.13;;
6282;SDS011;3174;53.486;9.568;2023-05-07T12:34:03;4.33;;;2.80;;
6282;SDS011;3174;53.486;9.568;2023-05-07T12:36:36;3.80;;;2.97;;
6282;SDS011;3174;53.486;9.568;2023-05-07T12:39:06;4.30;;;3.13;;
6282;SDS011;3174;53.486;9.568;2023-05-07T12:41:52;4.83;;;3.27;;
6282;SDS011;3174;53.486;9.568;2023-05-07T12:44:21;5.20;;;3.03;;
6282;SDS011;3174;53.486;9.568;2023-05-07T12:46:50;4.27;;;3.13;;
6282;SDS011;3174;53.486;9.568;2023-05-07T12:49:18;4.10;;;3.00;;
6282;SDS011;3174;53.486;9.568;2023-05-07T12:51:49;4.17;;;3.03;;
6282;SDS011;3174;53.486;9.568;2023-05-07T12:54:28;3.60;;;2.70;;
6282;SDS011;3174;53.486;9.568;2023-05-07T12:57:00;3.23;;;2.80;;
6282;SDS011;3174;53.486;9.568;2023-05-07T12:59:33;4.27;;;2.87;;
6282;SDS011;3174;53.486;9.568;2023-05-07T13:02:01;3.90;;;2.50;;
6282;SDS011;3174;53.486;9.568;2023-05-07T13:04:29;3.77;;;2.87;;
6282;SDS011;3174;53.486;9.568;2023-05-07T13:06:57;5.10;;;3.10;;
6282;SDS011;3174;53.486;9.568;2023-05-07T13:09:25;3.07;;;2.30;;
6282;SDS011;3174;53.486;9.568;2023-05-07T13:11:57;3.23;;;2.73;;
6282;SDS011;3174;53.486;9.568;2023-05-07T13:14:27;3.53;;;2.33;;
6282;SDS011;3174;53.486;9.568;2023-05-07T13:16:55;4.53;;;2.60;;
6282;SDS011;3174;53.486;9.568;2023-05-07T13:19:23;2.83;;;2.27;;
6282;SDS011;3174;53.486;9.568;2023-05-07T13:21:51;3.90;;;2.63;;
6282;SDS011;3174;53.486;9.568;2023-05-07T13:24:19;4.53;;;2.50;;
6282;SDS011;3174;53.486;9.568;2023-05-07T13:26:47;3.20;;;2.30;;
6282;SDS011;3174;53.486;9.568;2023-05-07T13:29:16;2.80;;;2.47;;
6282;SDS011;3174;53.486;9.568;2023-05-07T13:31:44;3.50;;;2.43;;
6282;SDS011;3174;53.486;9.568;2023-05-07T13:34:15;5.00;;;2.80;;
6282;SDS011;3174;53.486;9.568;2023-05-07T13:36:43;5.43;;;2.60;;
6282;SDS011;3174;53.486;9.568;2023-05-07T13:39:10;2.60;;;2.40;;
6282;SDS011;3174;53.486;9.568;2023-05-07T13:41:38;5.07;;;2.40;;
6282;SDS011;3174;53.486;9.568;2023-05-07T13:44:06;3.33;;;2.07;;
6282;SDS011;3174;53.486;9.568;2023-05-07T13:46:36;2.93;;;2.30;;
6282;SDS011;3174;53.486;9.568;2023-05-07T13:49:04;3.23;;;2.70;;
6282;SDS011;3174;53.486;9.568;2023-05-07T13:51:32;3.97;;;2.70;;
6282;SDS011;3174;53.486;9.568;2023-05-07T13:54:00;2.90;;;2.50;;
6282;SDS011;3174;53.486;9.568;2023-05-07T13:56:28;3.00;;;2.00;;
6282;SDS011;3174;53.486;9.568;2023-05-07T13:58:57;2.80;;;2.10;;
6282;SDS011;3174;53.486;9.568;2023-05-07T14:01:26;3.93;;;2.40;;
6282;SDS011;3174;53.486;9.568;2023-05-07T14:03:56;3.07;;;2.30;;
6282;SDS011;3174;53.486;9.568;2023-05-07T14:06:26;3.80;;;2.20;;
6282;SDS011;3174;53.486;9.568;2023-05-07T14:08:53;2.43;;;2.00;;
6282;SDS011;3174;53.486;9.568;2023-05-07T14:11:24;3.37;;;2.20;;
6282;SDS011;3174;53.486;9.568;2023-05-07T14:13:52;3.27;;;2.30;;
6282;SDS011;3174;53.486;9.568;2023-05-07T14:16:20;3.10;;;2.50;;
6282;SDS011;3174;53.486;9.568;2023-05-07T14:18:48;3.60;;;2.40;;
6282;SDS011;3174;53.486;9.568;2023-05-07T14:21:17;4.57;;;2.40;;
6282;SDS011;3174;53.486;9.568;2023-05-07T14:23:45;2.70;;;2.00;;
6282;SDS011;3174;53.486;9.568;2023-05-07T14:26:13;2.30;;;2.10;;
6282;SDS011;3174;53.486;9.568;2023-05-07T14:28:41;3.70;;;2.20;;
6282;SDS011;3174;53.486;9.568;2023-05-07T14:31:12;2.93;;;2.30;;
6282;SDS011;3174;53.486;9.568;2023-05-07T14:33:40;3.37;;;2.17;;
6282;SDS011;3174;53.486;9.568;2023-05-07T14:36:08;2.73;;;2.30;;
6282;SDS011;3174;53.486;9.568;2023-05-07T14:38:38;3.57;;;2.30;;
6282;SDS011;3174;53.486;9.568;2023-05-07T14:41:06;4.10;;;2.73;;
6282;SDS011;3174;53.486;9.568;2023-05-07T14:43:34;2.77;;;2.20;;
6282;SDS011;3174;53.486;9.568;2023-05-07T14:46:02;3.97;;;2.40;;
6282;SDS011;3174;53.486;9.568;2023-05-07T14:48:30;2.80;;;2.50;;
6282;SDS011;3174;53.486;9.568;2023-05-07T14:50:57;2.57;;;2.13;;
6282;SDS011;3174;53.486;9.568;2023-05-07T14:53:25;2.27;;;2.00;;
6282;SDS011;3174;53.486;9.568;2023-05-07T14:55:55;2.40;;;2.03;;
6282;SDS011;3174;53.486;9.568;2023-05-07T14:58:23;3.63;;;2.20;;
6282;SDS011;3174;53.486;9.568;2023-05-07T15:00:51;3.00;;;2.00;;
6282;SDS011;3174;53.486;9.568;2023-05-07T15:03:19;8.50;;;2.37;;
6282;SDS011;3174;53.486;9.568;2023-05-07T15:05:48;2.57;;;2.10;;
6282;SDS011;3174;53.486;9.568;2023-05-07T15:08:17;2.00;;;1.77;;
6282;SDS011;3174;53.486;9.568;2023-05-07T15:10:45;2.13;;;1.80;;
6282;SDS011;3174;53.486;9.568;2023-05-07T15:13:15;2.33;;;1.93;;
6282;SDS011;3174;53.486;9.568;2023-05-07T15:15:44;3.33;;;2.17;;
6282;SDS011;3174;53.486;9.568;2023-05-07T15:18:12;2.83;;;2.00;;
6282;SDS011;3174;53.486;9.568;2023-05-07T15:20:40;2.20;;;2.00;;
6282;SDS011;3174;53.486;9.568;2023-05-07T15:23:08;2.40;;;2.00;;
6282;SDS011;3174;53.486;9.568;2023-05-07T15:25:38;2.70;;;1.93;;
6282;SDS011;3174;53.486;9.568;2023-05-07T15:28:06;2.03;;;1.60;;
6282;SDS011;3174;53.486;9.568;2023-05-07T15:30:36;2.70;;;1.97;;
6282;SDS011;3174;53.486;9.568;2023-05-07T15:33:04;3.43;;;2.30;;
6282;SDS011;3174;53.486;9.568;2023-05-07T15:35:32;2.50;;;1.90;;
6282;SDS011;3174;53.486;9.568;2023-05-07T15:38:00;2.70;;;2.27;;